Time;durP1;ratioP1;P1;durP2;ratioP2;P2;SDS_P1;SDS_P2;PMS_P1;PMS_P2;Temp;Humidity;BMP_temperature;BMP_pressure;BME280_temperature;BME280_humidity;BME280_pressure;Samples;Min_cycle;Max_cycle;Signal;HPM_P1;HPM_P2
2024/03/11 00:00:07;;;;;;;6.90;4.50;;;23.60;50.80;;;;;;6177142;28;81376;-62
2024/03/11 00:03:12;;;;;;;6.07;4.13;;;23.60;50.80;;;;;;6171004;28;81179;-64
2024/03/11 00:06:13;;;;;;;5.22;4.22;;;23.60;50.80;;;;;;6175461;28;80400;-63
2024/03/11 00:09:20;;;;;;;6.75;4.43;;;23.60;50.80;;;;;;6185334;28;81036;-63
2024/03/11 00:12:22;;;;;;;6.88;3.85;;;23.60;50.70;;;;;;6179890;28;80450;-64
2024/03/11 00:15:25;;;;;;;4.88;4.20;;;23.60;50.70;;;;;;6175836;28;80951;-62
2024/03/11 00:18:26;;;;;;;4.78;3.92;;;23.60;50.70;;;;;;6178796;28;80424;-62
2024/03/11 00:21:27;;;;;;;5.47;4.03;;;23.60;50.60;;;;;;6171096;28;80554;-63
2024/03/11 00:24:29;;;;;;;4.85;3.70;;;23.60;50.70;;;;;;6176077;28;82028;-65
2024/03/11 00:27:30;;;;;;;5.55;4.45;;;23.60;50.60;;;;;;6176566;28;80992;-64
2024/03/11 00:30:30;;;;;;;5.55;4.00;;;23.60;50.40;;;;;;6176414;28;80669;-64
2024/03/11 00:33:31;;;;;;;5.00;4.10;;;23.60;50.50;;;;;;6176631;28;81095;-62
2024/03/11 00:36:31;;;;;;;6.40;3.95;;;23.60;50.50;;;;;;6175709;28;81925;-65
2024/03/11 00:39:34;;;;;;;6.25;4.47;;;23.60;50.80;;;;;;6175880;28;81453;-66
2024/03/11 00:42:34;;;;;;;5.40;4.50;;;23.60;50.70;;;;;;6183437;28;80602;-65
2024/03/11 00:45:35;;;;;;;5.45;4.18;;;23.60;50.70;;;;;;6182656;28;80092;-66
2024/03/11 00:48:38;;;;;;;6.53;4.32;;;23.60;50.70;;;;;;6192428;28;80708;-65
2024/03/11 00:51:39;;;;;;;4.75;4.20;;;23.60;50.70;;;;;;6187003;28;82144;-60
2024/03/11 00:54:39;;;;;;;6.28;3.67;;;23.60;50.70;;;;;;6187468;28;81746;-59
2024/03/11 00:57:40;;;;;;;4.28;3.63;;;23.60;50.70;;;;;;6175859;28;80650;-59
2024/03/11 01:00:41;;;;;;;5.53;4.18;;;23.60;50.60;;;;;;6176366;28;81060;-58
2024/03/11 01:03:43;;;;;;;6.38;3.90;;;23.60;50.60;;;;;;6177922;28;80178;-58
2024/03/11 01:06:44;;;;;;;5.40;4.00;;;23.60;50.60;;;;;;6178956;28;81116;-60
2024/03/11 01:09:44;;;;;;;7.53;4.63;;;23.60;50.50;;;;;;6180653;28;81056;-57
2024/03/11 01:12:46;;;;;;;4.85;3.83;;;23.60;50.60;;;;;;6180303;28;80270;-55
2024/03/11 01:15:46;;;;;;;5.32;4.00;;;23.60;50.40;;;;;;6179319;28;81550;-54
2024/03/11 01:18:46;;;;;;;5.25;4.13;;;23.60;50.40;;;;;;6156077;28;80267;-56
2024/03/11 01:21:48;;;;;;;5.22;4.10;;;23.60;50.50;;;;;;6163883;28;81265;-57
2024/03/11 01:24:48;;;;;;;5.88;3.58;;;23.60;50.50;;;;;;6171988;28;80459;-56
2024/03/11 01:27:49;;;;;;;4.57;3.63;;;23.60;50.60;;;;;;6174030;28;80759;-62
2024/03/11 01:30:50;;;;;;;4.45;3.90;;;23.60;50.60;;;;;;6180628;28;87740;-62
2024/03/11 01:33:50;;;;;;;4.53;3.67;;;23.60;50.40;;;;;;6180425;28;80421;-62
2024/03/11 01:36:51;;;;;;;5.32;3.97;;;23.60;50.40;;;;;;6180150;28;80765;-63
2024/03/11 01:39:51;;;;;;;4.32;3.58;;;23.60;50.40;;;;;;6190692;28;80614;-64
2024/03/11 01:42:52;;;;;;;5.10;3.95;;;23.60;50.60;;;;;;6180883;28;81021;-64
2024/03/11 01:45:53;;;;;;;5.10;3.95;;;23.60;50.40;;;;;;6179538;28;80310;-59
2024/03/11 01:48:53;;;;;;;6.95;4.45;;;23.60;50.50;;;;;;6179307;28;80079;-59
2024/03/11 01:51:54;;;;;;;5.65;3.83;;;23.60;50.40;;;;;;6178022;28;82044;-58
2024/03/11 01:54:55;;;;;;;5.30;3.97;;;23.60;50.40;;;;;;6179167;28;80488;-58
2024/03/11 01:57:56;;;;;;;5.20;3.70;;;23.60;50.40;;;;;;6179608;28;80401;-58
2024/03/11 02:00:57;;;;;;;5.78;4.20;;;23.60;50.20;;;;;;6185540;28;80335;-60
2024/03/11 02:03:58;;;;;;;5.60;4.07;;;23.60;50.30;;;;;;6178417;28;81380;-59
2024/03/11 02:06:59;;;;;;;3.90;3.25;;;23.50;50.10;;;;;;6177952;28;81834;-55
2024/03/11 02:09:59;;;;;;;5.28;3.75;;;23.50;50.10;;;;;;6178289;28;80417;-57
2024/03/11 02:13:00;;;;;;;5.05;4.00;;;23.50;50.10;;;;;;6185935;28;83965;-56
2024/03/11 02:16:00;;;;;;;5.95;4.15;;;23.50;50.20;;;;;;6179344;28;80631;-57
2024/03/11 02:19:01;;;;;;;6.80;4.30;;;23.50;50.10;;;;;;6166267;28;80567;-56
2024/03/11 02:22:04;;;;;;;4.55;3.72;;;23.50;50.10;;;;;;6178627;28;80841;-61
2024/03/11 02:25:05;;;;;;;5.00;3.90;;;23.50;50.10;;;;;;6177044;28;80863;-60
2024/03/11 02:28:06;;;;;;;4.93;3.85;;;23.50;50.10;;;;;;6179586;28;80741;-63
2024/03/11 02:31:07;;;;;;;5.35;3.63;;;23.50;50.00;;;;;;6179441;28;80639;-62
2024/03/11 02:34:07;;;;;;;4.97;3.65;;;23.50;50.00;;;;;;6178747;28;80156;-60
2024/03/11 02:37:08;;;;;;;5.57;3.92;;;23.50;50.20;;;;;;6180153;28;81436;-60
2024/03/11 02:40:09;;;;;;;7.72;3.85;;;23.60;50.10;;;;;;6178476;28;80344;-62
2024/03/11 02:43:09;;;;;;;5.38;3.72;;;23.50;50.00;;;;;;6166125;28;81932;-60
2024/03/11 02:46:10;;;;;;;6.05;4.18;;;23.50;50.00;;;;;;6176911;28;83230;-62
2024/03/11 02:49:11;;;;;;;6.68;4.32;;;23.50;50.10;;;;;;6177557;28;80453;-63
2024/03/11 02:52:11;;;;;;;5.03;3.35;;;23.50;50.00;;;;;;6177569;28;80778;-63
2024/03/11 02:55:14;;;;;;;4.78;3.40;;;23.60;50.00;;;;;;6177988;28;81852;-61
2024/03/11 02:58:15;;;;;;;4.47;3.35;;;23.60;50.00;;;;;;6177455;28;80837;-61
2024/03/11 03:01:16;;;;;;;5.72;3.80;;;23.60;50.00;;;;;;6178007;28;80268;-60
2024/03/11 03:04:18;;;;;;;5.82;4.10;;;23.60;50.00;;;;;;6185255;28;81638;-61
2024/03/11 03:07:19;;;;;;;4.53;3.50;;;23.60;50.00;;;;;;6181466;28;81095;-65
2024/03/11 03:10:19;;;;;;;5.43;3.92;;;23.50;49.90;;;;;;6177069;28;80462;-61
2024/03/11 03:13:20;;;;;;;4.72;3.70;;;23.50;50.00;;;;;;6178227;28;81882;-61
2024/03/11 03:16:21;;;;;;;4.28;3.47;;;23.50;49.90;;;;;;6190381;28;80131;-62
2024/03/11 03:19:21;;;;;;;3.85;3.30;;;23.60;50.10;;;;;;6178506;28;81319;-62
2024/03/11 03:22:22;;;;;;;4.30;3.72;;;23.50;50.10;;;;;;6177872;28;82088;-63
2024/03/11 03:25:30;;;;;;;4.85;3.67;;;23.50;50.10;;;;;;6177065;28;80759;-62
2024/03/11 03:28:31;;;;;;;5.22;3.97;;;23.60;50.00;;;;;;6178166;28;80682;-62
2024/03/11 03:31:32;;;;;;;4.57;3.47;;;23.60;50.00;;;;;;6174700;28;80445;-61
2024/03/11 03:34:32;;;;;;;3.95;3.40;;;23.50;50.20;;;;;;6177071;28;81112;-62
2024/03/11 03:37:34;;;;;;;4.40;3.40;;;23.50;49.90;;;;;;6176529;28;80282;-62
2024/03/11 03:40:34;;;;;;;5.18;3.85;;;23.50;50.00;;;;;;6176286;28;80540;-63
2024/03/11 03:43:35;;;;;;;4.95;3.88;;;23.50;50.30;;;;;;6177547;28;80997;-61
2024/03/11 03:46:35;;;;;;;5.50;3.58;;;23.50;50.20;;;;;;6177086;28;80820;-64
2024/03/11 03:49:36;;;;;;;4.05;3.58;;;23.50;50.20;;;;;;6167187;28;80934;-63
2024/03/11 03:52:38;;;;;;;4.28;3.60;;;23.60;50.10;;;;;;6178655;28;80726;-63
2024/03/11 03:55:39;;;;;;;4.45;3.67;;;23.50;50.00;;;;;;6170406;28;82583;-63
2024/03/11 03:58:41;;;;;;;4.88;3.42;;;23.50;50.00;;;;;;6175018;28;80119;-62
2024/03/11 04:01:42;;;;;;;3.55;2.95;;;23.50;50.00;;;;;;6173760;28;85240;-62
2024/03/11 04:04:44;;;;;;;5.75;3.60;;;23.50;50.80;;;;;;6165685;28;80410;-61
2024/03/11 04:07:45;;;;;;;4.28;3.15;;;23.50;50.10;;;;;;6169501;28;81256;-59
2024/03/11 04:10:46;;;;;;;4.28;3.47;;;23.50;50.00;;;;;;6172559;28;80451;-62
2024/03/11 04:13:49;;;;;;;3.58;3.10;;;23.50;50.00;;;;;;6176366;28;81100;-62
2024/03/11 04:16:49;;;;;;;5.38;3.35;;;23.50;50.00;;;;;;6175664;28;80892;-62
2024/03/11 04:19:50;;;;;;;7.03;4.07;;;23.50;50.40;;;;;;6187742;28;81257;-61
2024/03/11 04:22:51;;;;;;;5.65;3.22;;;23.60;50.40;;;;;;6177891;28;80643;-63
2024/03/11 04:25:51;;;;;;;3.97;3.35;;;23.60;50.30;;;;;;6197889;28;82549;-62
2024/03/11 04:28:52;;;;;;;4.53;3.15;;;23.60;50.20;;;;;;6177016;28;81834;-63
2024/03/11 04:31:53;;;;;;;4.18;3.03;;;23.60;50.20;;;;;;6176488;28;81404;-54
2024/03/11 04:34:54;;;;;;;4.07;3.20;;;23.60;50.10;;;;;;6176659;28;81327;-57
2024/03/11 04:37:54;;;;;;;4.57;3.50;;;23.60;49.80;;;;;;6179924;28;81129;-56
2024/03/11 04:40:55;;;;;;;4.57;3.17;;;23.70;49.80;;;;;;6181240;28;86576;-56
2024/03/11 04:43:57;;;;;;;3.97;3.25;;;23.70;49.70;;;;;;6180588;28;83262;-55
2024/03/11 04:46:57;;;;;;;5.68;2.83;;;23.70;49.50;;;;;;6180173;28;81218;-57
2024/03/11 04:49:58;;;;;;;3.80;2.63;;;23.70;49.40;;;;;;6179686;28;80808;-51
2024/03/11 04:52:58;;;;;;;3.88;3.25;;;23.70;49.30;;;;;;6179779;28;80226;-56
2024/03/11 04:56:00;;;;;;;4.20;2.97;;;23.80;49.20;;;;;;6180139;28;82482;-55
2024/03/11 04:59:01;;;;;;;4.70;2.92;;;23.80;49.10;;;;;;6180521;28;80560;-56
2024/03/11 05:02:02;;;;;;;5.20;3.25;;;23.80;49.10;;;;;;6175668;28;83169;-49
2024/03/11 05:05:03;;;;;;;4.90;3.63;;;23.80;49.30;;;;;;6177485;28;80420;-49
2024/03/11 05:08:03;;;;;;;8.02;3.55;;;23.80;49.10;;;;;;6178075;28;80821;-54
2024/03/11 05:11:04;;;;;;;6.45;3.10;;;23.80;49.10;;;;;;6178974;28;80764;-49
2024/03/11 05:14:06;;;;;;;4.25;3.35;;;23.80;49.00;;;;;;6177051;28;81044;-53
2024/03/11 05:17:07;;;;;;;4.47;3.22;;;23.90;49.10;;;;;;6178600;28;80449;-47
2024/03/11 05:20:11;;;;;;;4.50;3.58;;;23.90;49.30;;;;;;6178287;28;80394;-53
2024/03/11 05:23:12;;;;;;;4.35;3.85;;;23.90;49.40;;;;;;6167108;28;84811;-53
2024/03/11 05:26:12;;;;;;;7.30;3.45;;;23.90;49.40;;;;;;6179410;28;80583;-63
2024/03/11 05:29:13;;;;;;;5.75;2.90;;;23.90;49.60;;;;;;6179101;28;80562;-63
2024/03/11 05:32:14;;;;;;;8.73;3.65;;;23.90;50.00;;;;;;6179467;28;80488;-64
2024/03/11 05:35:14;;;;;;;4.55;3.20;;;23.90;50.80;;;;;;6167074;28;80588;-66
2024/03/11 05:38:15;;;;;;;7.97;2.97;;;23.90;50.60;;;;;;6177191;28;84815;-64
2024/03/11 05:41:15;;;;;;;7.05;3.08;;;23.90;50.80;;;;;;6177175;28;80505;-62
2024/03/11 05:44:19;;;;;;;6.85;3.47;;;24.00;51.10;;;;;;6176482;28;80812;-57
2024/03/11 05:47:20;;;;;;;4.97;3.38;;;24.00;51.30;;;;;;6163839;28;82828;-50
2024/03/11 05:50:20;;;;;;;5.80;3.47;;;24.00;51.30;;;;;;6175268;28;83335;-59
2024/03/11 05:53:22;;;;;;;5.72;3.15;;;24.00;51.30;;;;;;6175700;28;80940;-56
2024/03/11 05:56:25;;;;;;;7.47;3.53;;;24.00;51.40;;;;;;6174848;28;80553;-55
2024/03/11 05:59:26;;;;;;;10.98;3.85;;;24.00;51.20;;;;;;6175605;28;80700;-56
2024/03/11 06:02:27;;;;;;;7.60;3.60;;;24.00;51.40;;;;;;6177359;28;81379;-63
2024/03/11 06:05:27;;;;;;;14.80;3.75;;;24.00;51.40;;;;;;6175910;28;80915;-65
2024/03/11 06:08:28;;;;;;;8.88;4.07;;;24.00;51.30;;;;;;6178340;28;80532;-64
2024/03/11 06:11:28;;;;;;;6.65;3.78;;;24.00;52.00;;;;;;6178266;28;80906;-65
2024/03/11 06:14:29;;;;;;;11.48;3.63;;;24.00;51.20;;;;;;6169899;28;80735;-64
2024/03/11 06:17:29;;;;;;;9.05;3.78;;;24.00;51.10;;;;;;6173534;28;80563;-65
2024/03/11 06:20:30;;;;;;;7.07;3.70;;;23.90;51.10;;;;;;6175618;28;81996;-60
2024/03/11 06:23:32;;;;;;;5.80;3.92;;;23.90;51.10;;;;;;6174214;28;80849;-60
2024/03/11 06:26:36;;;;;;;8.77;3.45;;;23.90;50.90;;;;;;6165703;28;86845;-59
2024/03/11 06:29:36;;;;;;;17.60;4.53;;;23.90;51.00;;;;;;6173080;28;80686;-60
2024/03/11 06:32:37;;;;;;;5.68;3.67;;;23.90;50.90;;;;;;6173828;28;82726;-60
2024/03/11 06:35:37;;;;;;;6.63;3.97;;;23.80;50.80;;;;;;6175459;28;80639;-60
2024/03/11 06:38:38;;;;;;;7.50;4.15;;;23.80;50.70;;;;;;6178168;28;82521;-54
2024/03/11 06:41:38;;;;;;;5.28;3.72;;;23.80;50.70;;;;;;6178121;28;80388;-55
2024/03/11 06:44:39;;;;;;;5.95;3.90;;;23.80;50.80;;;;;;6158873;28;80592;-58
2024/03/11 06:47:41;;;;;;;5.38;3.75;;;23.80;51.00;;;;;;6162759;28;82003;-57
2024/03/11 06:50:41;;;;;;;5.57;3.50;;;23.80;51.10;;;;;;6163821;28;80654;-54
2024/03/11 06:53:42;;;;;;;9.85;3.63;;;23.80;51.30;;;;;;6176055;28;81249;-57
2024/03/11 06:56:42;;;;;;;7.22;3.97;;;23.80;51.00;;;;;;6166801;28;81532;-60
2024/03/11 06:59:45;;;;;;;10.23;4.20;;;23.80;51.10;;;;;;6172456;28;84370;-60
2024/03/11 07:02:46;;;;;;;5.53;3.35;;;23.80;51.30;;;;;;6164713;28;80408;-60
2024/03/11 07:05:47;;;;;;;7.03;4.03;;;23.80;51.20;;;;;;6175497;28;81613;-59
2024/03/11 07:08:47;;;;;;;5.32;3.60;;;23.80;50.90;;;;;;6175335;28;80389;-60
2024/03/11 07:11:48;;;;;;;6.72;3.80;;;23.70;50.90;;;;;;6167431;28;80612;-60
2024/03/11 07:14:49;;;;;;;4.68;3.65;;;23.70;51.00;;;;;;6177693;28;80801;-65
2024/03/11 07:17:49;;;;;;;4.47;3.53;;;23.70;51.60;;;;;;6175013;28;81568;-64
2024/03/11 07:20:52;;;;;;;6.15;3.40;;;23.70;51.00;;;;;;6182369;28;80857;-65
2024/03/11 07:23:53;;;;;;;4.82;3.17;;;23.70;51.00;;;;;;6181931;28;80983;-62
2024/03/11 07:26:53;;;;;;;4.88;3.42;;;23.70;50.70;;;;;;6176533;28;80016;-63
2024/03/11 07:29:56;;;;;;;6.70;3.72;;;23.70;50.80;;;;;;6176980;28;80910;-63
2024/03/11 07:32:57;;;;;;;4.85;3.60;;;23.70;50.60;;;;;;6175986;28;80842;-60
2024/03/11 07:35:57;;;;;;;6.65;3.83;;;23.70;50.60;;;;;;6177441;28;82826;-54
2024/03/11 07:38:58;;;;;;;4.85;3.58;;;23.70;50.50;;;;;;6176759;28;80507;-50
2024/03/11 07:41:59;;;;;;;3.70;3.22;;;23.70;50.50;;;;;;6176653;28;81949;-50
2024/03/11 07:44:59;;;;;;;5.57;4.07;;;23.70;50.50;;;;;;6164830;28;85056;-54
2024/03/11 07:48:01;;;;;;;4.80;3.72;;;23.70;50.50;;;;;;6175677;28;80574;-49
2024/03/11 07:51:01;;;;;;;4.30;3.38;;;23.70;50.50;;;;;;6175462;28;81330;-49
2024/03/11 07:54:02;;;;;;;3.90;3.25;;;23.70;50.50;;;;;;6176195;28;81178;-56
2024/03/11 07:57:02;;;;;;;4.85;3.40;;;23.70;50.60;;;;;;6160609;28;82483;-56
2024/03/11 08:00:05;;;;;;;6.25;4.05;;;23.60;50.50;;;;;;6174210;28;82358;-55
2024/03/11 08:03:07;;;;;;;5.28;3.78;;;23.60;50.50;;;;;;6175640;28;81800;-56
2024/03/11 08:06:08;;;;;;;4.93;3.65;;;23.60;50.60;;;;;;6173935;28;80559;-52
2024/03/11 08:09:09;;;;;;;4.50;3.50;;;23.60;50.60;;;;;;6169003;28;83399;-56
2024/03/11 08:12:09;;;;;;;5.10;3.42;;;23.60;50.60;;;;;;6179968;28;81272;-49
2024/03/11 08:15:12;;;;;;;5.07;3.70;;;23.60;50.60;;;;;;6181837;28;85740;-50
2024/03/11 08:18:13;;;;;;;4.53;3.30;;;23.60;50.70;;;;;;6188361;28;80255;-52
2024/03/11 08:21:13;;;;;;;5.22;3.85;;;23.60;50.80;;;;;;6187381;28;80376;-51
2024/03/11 08:24:14;;;;;;;4.72;3.40;;;23.60;50.70;;;;;;6184792;28;80286;-51
2024/03/11 08:27:15;;;;;;;4.90;3.30;;;23.70;50.70;;;;;;6184281;28;80502;-52
2024/03/11 08:30:16;;;;;;;3.70;3.10;;;23.70;50.80;;;;;;6183018;28;80481;-52
2024/03/11 08:33:16;;;;;;;5.53;3.38;;;23.70;50.70;;;;;;6184000;28;80520;-50
2024/03/11 08:36:17;;;;;;;4.40;3.45;;;23.70;50.70;;;;;;6183907;28;81174;-53
2024/03/11 08:39:21;;;;;;;6.10;3.42;;;23.60;50.60;;;;;;6183331;28;80934;-52
2024/03/11 08:42:21;;;;;;;5.45;3.53;;;23.70;50.70;;;;;;6184479;28;81690;-52
2024/03/11 08:45:27;;;;;;;4.63;3.53;;;23.70;50.70;;;;;;6184268;28;80968;-56
2024/03/11 08:48:30;;;;;;;5.32;3.47;;;23.70;50.70;;;;;;6182723;28;80681;-58
2024/03/11 08:51:31;;;;;;;5.20;3.55;;;23.60;50.70;;;;;;6183970;28;80431;-60
2024/03/11 08:54:32;;;;;;;6.30;3.55;;;23.60;50.70;;;;;;6184233;28;82191;-60
2024/03/11 08:57:32;;;;;;;5.63;3.50;;;23.60;50.70;;;;;;6183955;28;81293;-61
2024/03/11 09:00:36;;;;;;;6.15;3.50;;;23.60;50.70;;;;;;6184058;28;81502;-59
2024/03/11 09:03:38;;;;;;;4.22;3.45;;;23.70;50.80;;;;;;6185932;28;80935;-59
2024/03/11 09:06:43;;;;;;;4.55;3.63;;;23.60;50.80;;;;;;6183309;28;80539;-60
2024/03/11 09:09:43;;;;;;;5.70;3.85;;;23.60;50.70;;;;;;6183256;28;82306;-59
2024/03/11 09:12:44;;;;;;;5.13;3.55;;;23.70;50.80;;;;;;6183481;28;80364;-59
2024/03/11 09:15:46;;;;;;;5.25;3.63;;;23.60;50.60;;;;;;6184069;28;80610;-59
2024/03/11 09:18:46;;;;;;;4.28;3.30;;;23.60;50.70;;;;;;6183249;28;80618;-59
2024/03/11 09:21:47;;;;;;;4.45;3.28;;;23.70;50.80;;;;;;6181352;28;80470;-60
2024/03/11 09:24:49;;;;;;;4.68;3.40;;;23.60;50.80;;;;;;6179227;28;80683;-63
2024/03/11 09:27:49;;;;;;;5.80;3.50;;;23.60;50.80;;;;;;6180578;28;80809;-63
2024/03/11 09:30:50;;;;;;;4.40;3.40;;;23.60;50.80;;;;;;6179152;28;80283;-63
2024/03/11 09:33:50;;;;;;;4.40;3.10;;;23.60;50.80;;;;;;6179424;28;81044;-64
2024/03/11 09:36:50;;;;;;;4.85;3.53;;;23.60;51.00;;;;;;6179307;28;81203;-62
2024/03/11 09:39:51;;;;;;;4.90;3.40;;;23.70;51.20;;;;;;6179593;28;83100;-61
2024/03/11 09:42:54;;;;;;;4.18;3.70;;;23.70;51.20;;;;;;6179305;28;81609;-58
2024/03/11 09:45:55;;;;;;;3.83;3.20;;;23.70;51.20;;;;;;6179172;28;81650;-59
2024/03/11 09:48:57;;;;;;;4.18;3.45;;;23.70;51.30;;;;;;6178988;28;81466;-58
2024/03/11 09:51:57;;;;;;;4.90;3.35;;;23.70;51.50;;;;;;6176930;28;80317;-55
2024/03/11 09:54:58;;;;;;;4.10;3.05;;;23.70;51.50;;;;;;6178842;28;80594;-58
2024/03/11 09:57:59;;;;;;;3.78;3.05;;;23.70;51.60;;;;;;6177785;28;80348;-56
2024/03/11 10:00:59;;;;;;;5.40;3.80;;;23.70;51.70;;;;;;6171745;28;80198;-58
2024/03/11 10:04:00;;;;;;;6.68;3.70;;;23.70;51.60;;;;;;6173565;28;80704;-58
2024/03/11 10:07:00;;;;;;;5.20;3.38;;;23.70;51.70;;;;;;6172542;28;80597;-59
2024/03/11 10:10:01;;;;;;;4.55;3.35;;;23.70;51.80;;;;;;6177624;28;80832;-59
2024/03/11 10:13:04;;;;;;;5.75;3.53;;;23.60;51.70;;;;;;6177507;28;81314;-59
2024/03/11 10:16:05;;;;;;;4.43;3.30;;;23.60;51.70;;;;;;6177998;28;83055;-59
2024/03/11 10:19:13;;;;;;;6.45;3.28;;;23.70;51.80;;;;;;6178963;28;80211;-65
2024/03/11 10:22:14;;;;;;;4.03;2.83;;;23.60;51.80;;;;;;6178662;28;80344;-64
2024/03/11 10:25:16;;;;;;;7.22;3.78;;;23.70;51.80;;;;;;6177856;28;81002;-63
2024/03/11 10:28:16;;;;;;;4.95;3.15;;;23.70;51.70;;;;;;6177447;28;81622;-64
2024/03/11 10:31:17;;;;;;;5.57;3.67;;;23.70;52.40;;;;;;6178694;28;81333;-64
2024/03/11 10:34:21;;;;;;;3.78;3.20;;;23.70;51.60;;;;;;6177726;28;80908;-64
2024/03/11 10:37:21;;;;;;;4.43;3.13;;;23.70;51.70;;;;;;6177901;28;80868;-60
2024/03/11 10:40:25;;;;;;;5.10;3.30;;;23.70;51.70;;;;;;6177116;28;80878;-59
2024/03/11 10:43:28;;;;;;;6.30;4.15;;;23.70;51.80;;;;;;6177913;28;81555;-59
2024/03/11 10:46:29;;;;;;;4.43;3.42;;;23.70;51.70;;;;;;6177465;28;80381;-60
2024/03/11 10:49:29;;;;;;;6.28;3.78;;;23.70;51.70;;;;;;6176313;28;80653;-60
2024/03/11 10:52:30;;;;;;;4.32;3.25;;;23.70;51.70;;;;;;6187015;28;83651;-59
2024/03/11 10:55:34;;;;;;;4.55;3.53;;;23.60;51.70;;;;;;6178050;28;81008;-49
2024/03/11 10:58:34;;;;;;;7.43;3.58;;;23.60;51.70;;;;;;6178291;28;83386;-53
2024/03/11 11:01:35;;;;;;;5.70;3.35;;;23.60;51.70;;;;;;6177385;28;84272;-53
2024/03/11 11:04:36;;;;;;;5.05;3.67;;;23.60;51.70;;;;;;6177567;28;81660;-54
2024/03/11 11:07:37;;;;;;;6.13;3.50;;;23.60;51.70;;;;;;6177499;28;82524;-52
2024/03/11 11:10:38;;;;;;;5.35;3.85;;;23.60;51.70;;;;;;6174913;28;81460;-50
2024/03/11 11:13:41;;;;;;;5.78;3.83;;;23.60;51.70;;;;;;6177359;28;80718;-55
2024/03/11 11:16:45;;;;;;;3.60;3.22;;;23.60;51.70;;;;;;6176535;28;85351;-57
2024/03/11 11:19:46;;;;;;;5.22;3.58;;;23.60;51.70;;;;;;6177495;28;81520;-55
2024/03/11 11:22:49;;;;;;;5.75;3.65;;;23.60;51.70;;;;;;6175516;28;82980;-55
2024/03/11 11:25:51;;;;;;;4.85;3.78;;;23.60;51.70;;;;;;6176797;28;80931;-54
2024/03/11 11:28:51;;;;;;;8.13;3.70;;;23.60;51.60;;;;;;6176485;28;82443;-55
2024/03/11 11:31:54;;;;;;;4.95;3.38;;;23.60;51.60;;;;;;6176853;28;81537;-51
2024/03/11 11:34:55;;;;;;;4.07;3.20;;;23.60;51.70;;;;;;6176484;28;80672;-48
2024/03/11 11:37:56;;;;;;;5.43;4.03;;;23.60;51.70;;;;;;6176844;28;81292;-52
2024/03/11 11:40:58;;;;;;;5.53;3.60;;;23.60;51.70;;;;;;6175642;28;80624;-49
2024/03/11 11:43:58;;;;;;;4.68;3.75;;;23.60;51.60;;;;;;6176170;28;82017;-53
2024/03/11 11:46:59;;;;;;;5.40;3.80;;;23.60;51.60;;;;;;6175870;28;81039;-51
2024/03/11 11:50:01;;;;;;;6.43;3.80;;;23.60;51.60;;;;;;6177077;28;80642;-50
2024/03/11 11:53:05;;;;;;;4.45;3.33;;;23.60;51.60;;;;;;6172582;28;80807;-55
2024/03/11 11:56:05;;;;;;;6.28;3.30;;;23.60;51.70;;;;;;6176141;28;81706;-51
2024/03/11 11:59:08;;;;;;;4.20;3.20;;;23.60;51.60;;;;;;6176533;28;80410;-53
2024/03/11 12:02:09;;;;;;;6.82;4.18;;;23.60;51.60;;;;;;6176430;28;81849;-51
2024/03/11 12:05:11;;;;;;;6.40;3.90;;;23.60;51.60;;;;;;6175329;28;80852;-53
2024/03/11 12:08:11;;;;;;;5.35;4.05;;;23.60;51.60;;;;;;6174216;28;80383;-54
2024/03/11 12:11:20;;;;;;;5.57;3.63;;;23.60;51.60;;;;;;6175977;28;80060;-63
2024/03/11 12:14:22;;;;;;;5.25;3.92;;;23.60;51.60;;;;;;6176079;28;80187;-63
2024/03/11 12:17:25;;;;;;;4.30;3.38;;;23.60;51.70;;;;;;6176213;28;80150;-65
2024/03/11 12:20:30;;;;;;;5.18;3.85;;;23.60;51.60;;;;;;6174925;28;80485;-64
2024/03/11 12:23:30;;;;;;;10.03;3.70;;;23.60;51.70;;;;;;6175820;28;80560;-63
2024/03/11 12:26:34;;;;;;;5.28;4.03;;;23.60;51.70;;;;;;6176688;28;81014;-64
2024/03/11 12:29:35;;;;;;;7.25;3.85;;;23.60;51.60;;;;;;6177049;28;81178;-52
2024/03/11 12:32:39;;;;;;;5.03;4.07;;;23.60;51.70;;;;;;6176238;28;80933;-55
2024/03/11 12:35:43;;;;;;;4.03;3.60;;;23.60;51.60;;;;;;6163370;28;84139;-52
2024/03/11 12:38:43;;;;;;;7.57;4.38;;;23.60;51.70;;;;;;6175941;28;81827;-54
2024/03/11 12:41:44;;;;;;;7.63;4.22;;;23.60;51.60;;;;;;6175911;28;81468;-51
2024/03/11 12:44:45;;;;;;;4.90;3.70;;;23.60;51.60;;;;;;6175782;28;81496;-57
2024/03/11 12:47:46;;;;;;;6.35;3.90;;;23.60;51.60;;;;;;6176559;28;81475;-52
2024/03/11 12:50:46;;;;;;;6.00;4.05;;;23.60;51.60;;;;;;6175837;28;80439;-50
2024/03/11 12:53:48;;;;;;;6.10;4.00;;;23.60;51.60;;;;;;6176615;28;80469;-51
2024/03/11 12:56:51;;;;;;;7.03;4.13;;;23.60;51.60;;;;;;6178348;28;81687;-53
2024/03/11 12:59:51;;;;;;;5.70;4.32;;;23.60;51.70;;;;;;6179833;28;80397;-54
2024/03/11 13:02:53;;;;;;;8.55;4.00;;;23.60;51.60;;;;;;6179848;28;80580;-52
2024/03/11 13:05:54;;;;;;;7.22;4.55;;;23.60;51.70;;;;;;6177815;28;81244;-54
2024/03/11 13:08:54;;;;;;;5.85;4.50;;;23.60;51.70;;;;;;6179506;28;80821;-54
2024/03/11 13:11:59;;;;;;;5.35;4.22;;;23.60;51.70;;;;;;6179700;28;82221;-51
2024/03/11 13:15:00;;;;;;;5.45;4.20;;;23.60;51.70;;;;;;6179810;28;80846;-52
2024/03/11 13:18:00;;;;;;;6.03;4.38;;;23.60;51.70;;;;;;6179266;28;80316;-54
2024/03/11 13:21:05;;;;;;;8.48;4.72;;;23.60;51.70;;;;;;6179512;28;83026;-52
2024/03/11 13:24:07;;;;;;;7.30;4.72;;;23.60;51.70;;;;;;6179413;28;80613;-55
2024/03/11 13:27:08;;;;;;;5.53;4.35;;;23.60;51.80;;;;;;6179446;28;80429;-55
2024/03/11 13:30:12;;;;;;;6.07;4.28;;;23.60;51.70;;;;;;6177768;28;80183;-54
2024/03/11 13:33:13;;;;;;;7.97;5.05;;;23.60;51.70;;;;;;6179255;28;80360;-53
2024/03/11 13:36:13;;;;;;;6.47;4.32;;;23.60;51.70;;;;;;6178514;28;80522;-57
2024/03/11 13:39:17;;;;;;;5.05;4.25;;;23.60;51.70;;;;;;6180160;28;80265;-53
2024/03/11 13:42:18;;;;;;;7.20;5.05;;;23.60;51.70;;;;;;6186483;28;82210;-65
2024/03/11 13:45:18;;;;;;;5.80;5.05;;;23.60;51.70;;;;;;6177140;28;80371;-64
2024/03/11 13:48:19;;;;;;;6.40;4.45;;;23.60;51.80;;;;;;6179168;28;80804;-64
2024/03/11 13:51:19;;;;;;;6.50;4.72;;;23.60;51.80;;;;;;6178555;28;83239;-63
2024/03/11 13:54:21;;;;;;;8.15;4.80;;;23.60;51.80;;;;;;6178411;28;86697;-63
2024/03/11 13:57:21;;;;;;;7.28;5.05;;;23.60;51.80;;;;;;6178800;28;80879;-65
2024/03/11 14:00:22;;;;;;;6.88;4.57;;;23.60;51.90;;;;;;6173804;28;81276;-60
2024/03/11 14:03:22;;;;;;;7.57;4.95;;;23.60;52.10;;;;;;6178214;28;81461;-60
2024/03/11 14:06:25;;;;;;;9.07;5.47;;;23.60;51.90;;;;;;6181835;28;80519;-60
2024/03/11 14:09:26;;;;;;;4.90;4.10;;;23.60;52.00;;;;;;6178062;28;83258;-59
2024/03/11 14:12:26;;;;;;;12.88;5.28;;;23.60;52.10;;;;;;6178323;28;80360;-58
2024/03/11 14:15:29;;;;;;;8.90;5.50;;;23.60;52.10;;;;;;6176728;28;83079;-60
2024/03/11 14:18:30;;;;;;;8.30;5.35;;;23.60;52.20;;;;;;6176493;28;80867;-60
2024/03/11 14:21:30;;;;;;;7.57;4.97;;;23.60;52.20;;;;;;6167314;28;80592;-60
2024/03/11 14:24:31;;;;;;;7.75;4.80;;;23.60;52.20;;;;;;6165862;28;80656;-59
2024/03/11 14:27:31;;;;;;;9.18;5.18;;;23.60;52.20;;;;;;6177552;28;80914;-60
2024/03/11 14:30:34;;;;;;;8.70;5.30;;;23.60;52.20;;;;;;6177379;28;80903;-60
2024/03/11 14:33:35;;;;;;;10.82;5.13;;;23.60;52.20;;;;;;6177217;28;82452;-60
2024/03/11 14:36:36;;;;;;;8.73;5.03;;;23.60;52.20;;;;;;6178488;28;81091;-54
2024/03/11 14:39:37;;;;;;;8.95;5.32;;;23.60;52.20;;;;;;6178092;28;81417;-55
2024/03/11 14:42:39;;;;;;;7.95;5.20;;;23.60;52.20;;;;;;6176113;28;85251;-49
2024/03/11 14:45:39;;;;;;;10.52;5.20;;;23.60;52.20;;;;;;6178124;28;86285;-50
2024/03/11 14:48:46;;;;;;;8.48;5.05;;;23.60;52.10;;;;;;6176294;28;81449;-55
2024/03/11 14:51:47;;;;;;;7.28;4.72;;;23.60;52.10;;;;;;6176679;28;80292;-55
2024/03/11 14:54:49;;;;;;;10.05;5.47;;;23.60;52.20;;;;;;6178110;28;80358;-51
2024/03/11 14:57:50;;;;;;;8.52;5.20;;;23.60;52.20;;;;;;6178427;28;80922;-52
2024/03/11 15:00:51;;;;;;;8.05;5.20;;;23.60;52.10;;;;;;6178558;28;80901;-51
2024/03/11 15:03:51;;;;;;;6.78;4.63;;;23.60;52.20;;;;;;6177623;28;83176;-54
2024/03/11 15:06:52;;;;;;;6.72;4.40;;;23.60;52.20;;;;;;6177909;28;82429;-52
2024/03/11 15:09:56;;;;;;;9.38;4.97;;;23.60;52.20;;;;;;6176758;28;80440;-55
2024/03/11 15:12:56;;;;;;;8.18;4.97;;;23.60;52.20;;;;;;6177254;28;80349;-50
2024/03/11 15:15:57;;;;;;;9.15;4.90;;;23.60;52.20;;;;;;6174774;28;80699;-54
2024/03/11 15:18:57;;;;;;;7.68;4.90;;;23.60;52.30;;;;;;6171143;28;81167;-54
2024/03/11 15:21:58;;;;;;;10.07;5.40;;;23.60;52.70;;;;;;6167998;28;80578;-61
2024/03/11 15:24:59;;;;;;;9.07;4.68;;;23.60;52.90;;;;;;6176874;28;81452;-58
2024/03/11 15:27:59;;;;;;;10.20;5.03;;;23.70;53.20;;;;;;6171780;28;81182;-57
2024/03/11 15:31:00;;;;;;;13.43;4.93;;;23.70;53.50;;;;;;6174027;28;80626;-53
2024/03/11 15:34:00;;;;;;;9.98;4.78;;;23.70;53.70;;;;;;6176765;28;81379;-55
2024/03/11 15:37:01;;;;;;;13.05;5.30;;;23.80;53.80;;;;;;6174125;28;81428;-55
2024/03/11 15:40:04;;;;;;;12.25;5.50;;;23.80;53.90;;;;;;6176737;28;80342;-53